Hydrus — WDJ3145 — position and weather

sailwx.info

Track history (hours):
 
Tides and Currents Weather Stations Pressure Air Temp Water Temp Dewpoint Dewpoint Depression Visibility Wind Speed Wind Dir Waves Ship Positions

Hydrus

Owner: San Francisco Bay Area Water Emergency Transportation Authority, San Francisco, CA. More information available from US FCC via Universal Licensing System and Coast Guard Vessel Documentation Center.

Last reported at 2017-Nov-18 03:01 UTC. Time now 2017-Nov-18 03:01 UTC.
Position N 37°48' W 122°17'.

Length 41 m; draft 2 m.

Type: Passenger vessel. MMSI: 367765240.

Date/timePositionNaut miles runAvg speedWind from/ knotsBaromVisibWave heightAir tempDewpointWater temp
2017-Nov-18 03:01N 37°48' W 122°17'510.4
2017-Nov-18 02:31N 37°48' W 122°23'510.4
2017-Nov-18 02:00N 37°48' W 122°17'4 7.9
2017-Nov-18 01:30N 37°47' W 122°22'1 2.8
2017-Nov-18 01:01N 37°48' W 122°24'0 0.6
2017-Nov-18 00:31N 37°48' W 122°23'5 9.4
2017-Nov-18 00:00N 37°48' W 122°17'612.0
2017-Nov-17 23:30N 37°49' W 122°25'1 1.8
2017-Nov-17 23:00N 37°48' W 122°24'0 0.0
2017-Nov-17 22:30N 37°48' W 122°24'0 0.0
2017-Nov-17 22:00N 37°48' W 122°24'0 0.0
2017-Nov-17 21:30N 37°48' W 122°24'0 0.0
2017-Nov-17 21:00N 37°48' W 122°24'0 0.0
2017-Nov-17 20:30N 37°48' W 122°24'0 0.0
2017-Nov-17 20:00N 37°48' W 122°24'0 0.0
2017-Nov-17 19:30N 37°48' W 122°24'0 0.0
2017-Nov-17 19:00N 37°48' W 122°24'0 0.0
2017-Nov-17 18:30N 37°48' W 122°24'0 0.0
2017-Nov-17 18:00N 37°48' W 122°24'0 0.0
2017-Nov-17 17:30N 37°48' W 122°24'3 5.9
2017-Nov-17 17:00N 37°48' W 122°20'3 5.3
2017-Nov-17 16:30N 37°48' W 122°17'5 9.5
2017-Nov-17 16:01N 37°48' W 122°23'5 9.5
2017-Nov-17 15:30N 37°48' W 122°17'510.6
2017-Nov-17 15:00N 37°48' W 122°24'510.6
2017-Nov-17 14:30N 37°48' W 122°17'4 7.1
2017-Nov-17 14:01N 37°48' W 122°21'3 5.7
2017-Nov-17 13:30N 37°49' W 122°25'0 0.0
2017-Nov-17 06:37N 37°49' W 122°25'0 0.5
2017-Nov-17 06:30N 37°49' W 122°25'612.8
2017-Nov-17 06:01N 37°48' W 122°17'510.6
2017-Nov-17 05:30N 37°48' W 122°24'0 0.0
2017-Nov-17 05:00N 37°48' W 122°24'0 0.0
2017-Nov-17 04:30N 37°48' W 122°24'0 0.0
2017-Nov-17 04:00N 37°48' W 122°24'510.4
2017-Nov-17 03:30N 37°48' W 122°17'4 8.3
2017-Nov-17 03:01N 37°48' W 122°22'4 8.4
2017-Nov-17 02:30N 37°48' W 122°17'2 4.7
2017-Nov-17 02:01N 37°48' W 122°20'0 0.1
2017-Nov-17 01:30N 37°48' W 122°20'2 3.6
2017-Nov-17 01:00N 37°48' W 122°18'5 9.3
2017-Nov-17 00:30N 37°48' W 122°24'4 7.0
2017-Nov-17 00:01N 37°48' W 122°19'1 1.8
2017-Nov-16 23:31N 37°47' W 122°18'510.7
2017-Nov-16 23:00N 37°49' W 122°25'0 0.6
2017-Nov-16 22:30N 37°49' W 122°25'0 0.0
2017-Nov-16 22:00N 37°49' W 122°25'0 0.0
2017-Nov-16 21:30N 37°49' W 122°25'0 0.0
2017-Nov-16 21:00N 37°49' W 122°25'0 0.0
2017-Nov-16 20:30N 37°49' W 122°25'0 0.0
2017-Nov-16 20:00N 37°49' W 122°25'1 2.6
2017-Nov-16 19:30N 37°48' W 122°24'510.7
2017-Nov-16 19:01N 37°48' W 122°17'510.6
2017-Nov-16 18:30N 37°48' W 122°24'1 2.6
2017-Nov-16 18:00N 37°49' W 122°25'0 0.0
2017-Nov-16 17:30N 37°49' W 122°25'0 0.0
2017-Nov-16 17:00N 37°49' W 122°25'0 0.0
2017-Nov-16 16:30N 37°49' W 122°25'1 1.7
2017-Nov-16 15:58N 37°48' W 122°24'0 0.0
2017-Nov-15 22:59N 37°48' W 122°24'613.4
2017-Nov-15 22:31N 37°42' W 122°20'611.7
2017-Nov-15 22:00N 37°37' W 122°18'1223.6
2017-Nov-15 21:30N 37°48' W 122°23'0 1.0
2017-Nov-15 21:00N 37°48' W 122°24'3 6.5
2017-Nov-15 20:31N 37°51' W 122°25'1122.1
2017-Nov-15 20:00N 38°02' W 122°22'612.6
2017-Nov-15 19:30N 38°06' W 122°16'  
Track history (hours):
 
Tides and Currents Weather Stations Pressure Air Temp Water Temp Dewpoint Dewpoint Depression Visibility Wind Speed Wind Dir Waves Ship Positions

Hydrus

Owner: San Francisco Bay Area Water Emergency Transportation Authority, San Francisco, CA. More information available from US FCC via Universal Licensing System and Coast Guard Vessel Documentation Center.

Last reported at 2017-Nov-18 03:01 UTC. Time now 2017-Nov-18 03:01 UTC.
Position N 37°48' W 122°17'.

Length 41 m; draft 2 m.

Type: Passenger vessel. MMSI: 367765240.

Date/timePositionNaut miles runAvg speedWind from/ knotsBaromVisibWave heightAir tempDewpointWater temp
2017-Nov-18 03:01N 37°48' W 122°17'510.4
2017-Nov-18 02:31N 37°48' W 122°23'510.4
2017-Nov-18 02:00N 37°48' W 122°17'4 7.9
2017-Nov-18 01:30N 37°47' W 122°22'1 2.8
2017-Nov-18 01:01N 37°48' W 122°24'0 0.6
2017-Nov-18 00:31N 37°48' W 122°23'5 9.4
2017-Nov-18 00:00N 37°48' W 122°17'612.0
2017-Nov-17 23:30N 37°49' W 122°25'1 1.8
2017-Nov-17 23:00N 37°48' W 122°24'0 0.0
2017-Nov-17 22:30N 37°48' W 122°24'0 0.0
2017-Nov-17 22:00N 37°48' W 122°24'0 0.0
2017-Nov-17 21:30N 37°48' W 122°24'0 0.0
2017-Nov-17 21:00N 37°48' W 122°24'0 0.0
2017-Nov-17 20:30N 37°48' W 122°24'0 0.0
2017-Nov-17 20:00N 37°48' W 122°24'0 0.0
2017-Nov-17 19:30N 37°48' W 122°24'0 0.0
2017-Nov-17 19:00N 37°48' W 122°24'0 0.0
2017-Nov-17 18:30N 37°48' W 122°24'0 0.0
2017-Nov-17 18:00N 37°48' W 122°24'0 0.0
2017-Nov-17 17:30N 37°48' W 122°24'3 5.9
2017-Nov-17 17:00N 37°48' W 122°20'3 5.3
2017-Nov-17 16:30N 37°48' W 122°17'5 9.5
2017-Nov-17 16:01N 37°48' W 122°23'5 9.5
2017-Nov-17 15:30N 37°48' W 122°17'510.6
2017-Nov-17 15:00N 37°48' W 122°24'510.6
2017-Nov-17 14:30N 37°48' W 122°17'4 7.1
2017-Nov-17 14:01N 37°48' W 122°21'3 5.7
2017-Nov-17 13:30N 37°49' W 122°25'0 0.0
2017-Nov-17 06:37N 37°49' W 122°25'0 0.5
2017-Nov-17 06:30N 37°49' W 122°25'612.8
2017-Nov-17 06:01N 37°48' W 122°17'510.6
2017-Nov-17 05:30N 37°48' W 122°24'0 0.0
2017-Nov-17 05:00N 37°48' W 122°24'0 0.0
2017-Nov-17 04:30N 37°48' W 122°24'0 0.0
2017-Nov-17 04:00N 37°48' W 122°24'510.4
2017-Nov-17 03:30N 37°48' W 122°17'4 8.3
2017-Nov-17 03:01N 37°48' W 122°22'4 8.4
2017-Nov-17 02:30N 37°48' W 122°17'2 4.7
2017-Nov-17 02:01N 37°48' W 122°20'0 0.1
2017-Nov-17 01:30N 37°48' W 122°20'2 3.6
2017-Nov-17 01:00N 37°48' W 122°18'5 9.3
2017-Nov-17 00:30N 37°48' W 122°24'4 7.0
2017-Nov-17 00:01N 37°48' W 122°19'1 1.8
2017-Nov-16 23:31N 37°47' W 122°18'510.7
2017-Nov-16 23:00N 37°49' W 122°25'0 0.6
2017-Nov-16 22:30N 37°49' W 122°25'0 0.0
2017-Nov-16 22:00N 37°49' W 122°25'0 0.0
2017-Nov-16 21:30N 37°49' W 122°25'0 0.0
2017-Nov-16 21:00N 37°49' W 122°25'0 0.0
2017-Nov-16 20:30N 37°49' W 122°25'0 0.0
2017-Nov-16 20:00N 37°49' W 122°25'1 2.6
2017-Nov-16 19:30N 37°48' W 122°24'510.7
2017-Nov-16 19:01N 37°48' W 122°17'510.6
2017-Nov-16 18:30N 37°48' W 122°24'1 2.6
2017-Nov-16 18:00N 37°49' W 122°25'0 0.0
2017-Nov-16 17:30N 37°49' W 122°25'0 0.0
2017-Nov-16 17:00N 37°49' W 122°25'0 0.0
2017-Nov-16 16:30N 37°49' W 122°25'1 1.7
2017-Nov-16 15:58N 37°48' W 122°24'0 0.0
2017-Nov-15 22:59N 37°48' W 122°24'613.4
2017-Nov-15 22:31N 37°42' W 122°20'611.7
2017-Nov-15 22:00N 37°37' W 122°18'1223.6
2017-Nov-15 21:30N 37°48' W 122°23'0 1.0
2017-Nov-15 21:00N 37°48' W 122°24'3 6.5
2017-Nov-15 20:31N 37°51' W 122°25'1122.1
2017-Nov-15 20:00N 38°02' W 122°22'612.6
2017-Nov-15 19:30N 38°06' W 122°16'  

Dump ship's entire track history